sensor_id;sensor_type;location;lat;lon;timestamp;pressure;altitude;pressure_sealevel;temperature;humidity
50696;BME280;36665;51.786;21.594;2023-12-22T00:00:40;92194.21;;;4.39;100.00
50696;BME280;36665;51.786;21.594;2023-12-22T00:09:23;92130.01;;;4.22;100.00
50696;BME280;36665;51.786;21.594;2023-12-22T00:17:48;92090.20;;;4.11;100.00
50696;BME280;36665;51.786;21.594;2023-12-22T00:26:12;92057.95;;;4.03;100.00
50696;BME280;36665;51.786;21.594;2023-12-22T00:34:40;92049.10;;;4.01;100.00
50696;BME280;36665;51.786;21.594;2023-12-22T00:43:06;92035.10;;;3.97;100.00
50696;BME280;36665;51.786;21.594;2023-12-22T00:51:30;91999.19;;;3.88;100.00
50696;BME280;36665;51.786;21.594;2023-12-22T00:59:55;91974.40;;;3.80;100.00
50696;BME280;36665;51.786;21.594;2023-12-22T01:08:19;91964.98;;;3.78;100.00
50696;BME280;36665;51.786;21.594;2023-12-22T01:16:44;91955.29;;;3.75;100.00
50696;BME280;36665;51.786;21.594;2023-12-22T01:25:08;91939.89;;;3.71;100.00
50696;BME280;36665;51.786;21.594;2023-12-22T01:33:34;91901.30;;;3.61;100.00
50696;BME280;36665;51.786;21.594;2023-12-22T01:41:59;91807.46;;;3.35;100.00
50696;BME280;36665;51.786;21.594;2023-12-22T01:50:25;91737.06;;;3.16;100.00
50696;BME280;36665;51.786;21.594;2023-12-22T01:58:51;91688.89;;;3.03;100.00
50696;BME280;36665;51.786;21.594;2023-12-22T02:07:17;91645.73;;;2.92;100.00
50696;BME280;36665;51.786;21.594;2023-12-22T02:15:40;91625.83;;;2.87;100.00
50696;BME280;36665;51.786;21.594;2023-12-22T02:24:07;91594.67;;;2.79;100.00
50696;BME280;36665;51.786;21.594;2023-12-22T02:32:37;91581.33;;;2.75;100.00
50696;BME280;36665;51.786;21.594;2023-12-22T02:41:01;91580.39;;;2.75;100.00
50696;BME280;36665;51.786;21.594;2023-12-22T02:49:26;91613.47;;;2.84;100.00
50696;BME280;36665;51.786;21.594;2023-12-22T02:57:50;91636.64;;;2.91;100.00
50696;BME280;36665;51.786;21.594;2023-12-22T06:33:21;91297.52;;;2.01;100.00
50696;BME280;36665;51.786;21.594;2023-12-22T06:41:46;91279.77;;;1.95;100.00
50696;BME280;36665;51.786;21.594;2023-12-22T06:50:10;91266.00;;;1.92;100.00
50696;BME280;36665;51.786;21.594;2023-12-22T06:58:34;91252.27;;;1.88;100.00
50696;BME280;36665;51.786;21.594;2023-12-22T07:06:58;91255.78;;;1.90;100.00
50696;BME280;36665;51.786;21.594;2023-12-22T07:15:25;91288.95;;;1.98;100.00
50696;BME280;36665;51.786;21.594;2023-12-22T07:23:50;91333.17;;;2.11;100.00
50696;BME280;36665;51.786;21.594;2023-12-22T07:32:17;91368.34;;;2.21;100.00
50696;BME280;36665;51.786;21.594;2023-12-22T07:40:46;91411.17;;;2.32;100.00
50696;BME280;36665;51.786;21.594;2023-12-22T07:49:09;91427.92;;;2.36;100.00
50696;BME280;36665;51.786;21.594;2023-12-22T07:57:34;91426.43;;;2.37;100.00
50696;BME280;36665;51.786;21.594;2023-12-22T08:06:00;91397.73;;;2.29;100.00
50696;BME280;36665;51.786;21.594;2023-12-22T08:14:26;91149.54;;;1.61;100.00
50696;BME280;36665;51.786;21.594;2023-12-22T08:22:50;90881.52;;;0.87;100.00
50696;BME280;36665;51.786;21.594;2023-12-22T08:31:18;90782.86;;;0.60;100.00
50696;BME280;36665;51.786;21.594;2023-12-22T08:39:45;90801.45;;;0.66;100.00
50696;BME280;36665;51.786;21.594;2023-12-22T08:48:10;90867.45;;;0.84;100.00
50696;BME280;36665;51.786;21.594;2023-12-22T08:56:35;90907.84;;;0.96;100.00
50696;BME280;36665;51.786;21.594;2023-12-22T09:05:05;90981.53;;;1.16;100.00
50696;BME280;36665;51.786;21.594;2023-12-22T09:13:35;91051.34;;;1.35;100.00
50696;BME280;36665;51.786;21.594;2023-12-22T09:21:59;91153.11;;;1.63;100.00
50696;BME280;36665;51.786;21.594;2023-12-22T09:30:29;91257.66;;;1.91;100.00
50696;BME280;36665;51.786;21.594;2023-12-22T09:38:54;91330.65;;;2.13;100.00
50696;BME280;36665;51.786;21.594;2023-12-22T09:47:23;91407.70;;;2.33;100.00
50696;BME280;36665;51.786;21.594;2023-12-22T09:55:50;91455.59;;;2.45;100.00
50696;BME280;36665;51.786;21.594;2023-12-22T10:04:18;91501.05;;;2.59;100.00
50696;BME280;36665;51.786;21.594;2023-12-22T10:12:45;91542.21;;;2.69;100.00
50696;BME280;36665;51.786;21.594;2023-12-22T10:21:14;91590.18;;;2.81;100.00
50696;BME280;36665;51.786;21.594;2023-12-22T10:29:38;91610.38;;;2.88;100.00
50696;BME280;36665;51.786;21.594;2023-12-22T10:38:07;91637.07;;;2.95;100.00
50696;BME280;36665;51.786;21.594;2023-12-22T10:46:34;91674.38;;;3.04;100.00
50696;BME280;36665;51.786;21.594;2023-12-22T10:55:02;91690.94;;;3.08;100.00
50696;BME280;36665;51.786;21.594;2023-12-22T11:03:30;91604.88;;;2.85;100.00
50696;BME280;36665;51.786;21.594;2023-12-22T11:12:02;91496.22;;;2.56;100.00
50696;BME280;36665;51.786;21.594;2023-12-22T11:20:28;91448.80;;;2.44;100.00
50696;BME280;36665;51.786;21.594;2023-12-22T11:29:02;91402.15;;;2.31;100.00
50696;BME280;36665;51.786;21.594;2023-12-22T11:37:28;91246.80;;;1.89;100.00
50696;BME280;36665;51.786;21.594;2023-12-22T11:45:56;90991.96;;;1.18;100.00
50696;BME280;36665;51.786;21.594;2023-12-22T11:55:03;90786.63;;;0.63;100.00
50696;BME280;36665;51.786;21.594;2023-12-22T12:03:35;90685.86;;;0.35;100.00
50696;BME280;36665;51.786;21.594;2023-12-22T12:12:19;90591.49;;;0.10;100.00
50696;BME280;36665;51.786;21.594;2023-12-22T12:20:47;90622.45;;;0.18;100.00
50696;BME280;36665;51.786;21.594;2023-12-22T12:29:15;90665.41;;;0.30;100.00
50696;BME280;36665;51.786;21.594;2023-12-22T12:37:44;90656.07;;;0.28;100.00
50696;BME280;36665;51.786;21.594;2023-12-22T12:46:11;90640.01;;;0.24;100.00
50696;BME280;36665;51.786;21.594;2023-12-22T12:54:35;90675.27;;;0.33;100.00
50696;BME280;36665;51.786;21.594;2023-12-22T13:03:04;90721.02;;;0.47;100.00
50696;BME280;36665;51.786;21.594;2023-12-22T13:11:34;90732.65;;;0.50;100.00
50696;BME280;36665;51.786;21.594;2023-12-22T13:20:01;90737.20;;;0.53;100.00
50696;BME280;36665;51.786;21.594;2023-12-22T13:28:34;90733.42;;;0.51;100.00
50696;BME280;36665;51.786;21.594;2023-12-22T13:37:02;90728.73;;;0.50;100.00
50696;BME280;36665;51.786;21.594;2023-12-22T13:45:33;90715.65;;;0.45;100.00
50696;BME280;36665;51.786;21.594;2023-12-22T13:53:57;90706.20;;;0.43;100.00
50696;BME280;36665;51.786;21.594;2023-12-22T14:02:25;90684.21;;;0.37;100.00
50696;BME280;36665;51.786;21.594;2023-12-22T14:10:51;90655.40;;;0.29;100.00
50696;BME280;36665;51.786;21.594;2023-12-22T14:19:15;90611.78;;;0.17;100.00
50696;BME280;36665;51.786;21.594;2023-12-22T14:27:39;90608.07;;;0.16;100.00
50696;BME280;36665;51.786;21.594;2023-12-22T14:36:05;90623.91;;;0.21;100.00
50696;BME280;36665;51.786;21.594;2023-12-22T14:44:29;90621.96;;;0.20;100.00
50696;BME280;36665;51.786;21.594;2023-12-22T14:52:53;90617.98;;;0.20;100.00
50696;BME280;36665;51.786;21.594;2023-12-22T15:01:18;90617.77;;;0.20;100.00
50696;BME280;36665;51.786;21.594;2023-12-22T15:09:43;90630.05;;;0.23;100.00
50696;BME280;36665;51.786;21.594;2023-12-22T15:18:10;90634.64;;;0.24;100.00
50696;BME280;36665;51.786;21.594;2023-12-22T15:26:37;90632.63;;;0.24;100.00
50696;BME280;36665;51.786;21.594;2023-12-22T15:35:10;90607.80;;;0.17;100.00
50696;BME280;36665;51.786;21.594;2023-12-22T15:43:35;90585.45;;;0.11;100.00
50696;BME280;36665;51.786;21.594;2023-12-22T15:52:01;90562.91;;;0.06;100.00
50696;BME280;36665;51.786;21.594;2023-12-22T16:00:25;90560.70;;;0.06;100.00
50696;BME280;36665;51.786;21.594;2023-12-22T16:08:52;90571.94;;;0.07;100.00
50696;BME280;36665;51.786;21.594;2023-12-22T16:17:16;90563.54;;;0.05;100.00
50696;BME280;36665;51.786;21.594;2023-12-22T16:25:39;90567.50;;;0.07;100.00
50696;BME280;36665;51.786;21.594;2023-12-22T16:34:04;90559.83;;;0.05;100.00
50696;BME280;36665;51.786;21.594;2023-12-22T16:42:29;90555.69;;;0.04;100.00
50696;BME280;36665;51.786;21.594;2023-12-22T16:50:53;90564.83;;;0.07;100.00
50696;BME280;36665;51.786;21.594;2023-12-22T16:59:21;90568.42;;;0.08;100.00
50696;BME280;36665;51.786;21.594;2023-12-22T17:07:44;90569.52;;;0.08;100.00
50696;BME280;36665;51.786;21.594;2023-12-22T17:16:09;90581.48;;;0.10;100.00
50696;BME280;36665;51.786;21.594;2023-12-22T17:24:35;90565.23;;;0.07;100.00
50696;BME280;36665;51.786;21.594;2023-12-22T17:33:08;90564.92;;;0.07;100.00
50696;BME280;36665;51.786;21.594;2023-12-22T17:41:32;90560.70;;;0.06;100.00
50696;BME280;36665;51.786;21.594;2023-12-22T17:49:56;90535.20;;;-0.01;100.00
50696;BME280;36665;51.786;21.594;2023-12-22T17:58:23;90522.55;;;-0.05;100.00
50696;BME280;36665;51.786;21.594;2023-12-22T18:06:47;90525.46;;;-0.05;100.00
50696;BME280;36665;51.786;21.594;2023-12-22T18:15:12;90521.43;;;-0.05;100.00
50696;BME280;36665;51.786;21.594;2023-12-22T18:23:35;90533.92;;;-0.02;100.00
50696;BME280;36665;51.786;21.594;2023-12-22T18:31:58;90537.59;;;0.00;100.00
50696;BME280;36665;51.786;21.594;2023-12-22T18:40:24;90537.07;;;0.00;100.00
50696;BME280;36665;51.786;21.594;2023-12-22T18:48:48;90551.92;;;0.04;100.00
50696;BME280;36665;51.786;21.594;2023-12-22T18:57:18;90564.88;;;0.07;100.00
50696;BME280;36665;51.786;21.594;2023-12-22T19:05:41;90589.48;;;0.14;100.00
50696;BME280;36665;51.786;21.594;2023-12-22T19:14:07;90609.04;;;0.19;100.00
50696;BME280;36665;51.786;21.594;2023-12-22T19:22:32;90595.41;;;0.15;100.00
50696;BME280;36665;51.786;21.594;2023-12-22T19:30:58;90617.46;;;0.20;100.00
50696;BME280;36665;51.786;21.594;2023-12-22T19:39:31;90648.06;;;0.29;100.00
50696;BME280;36665;51.786;21.594;2023-12-22T19:47:57;90652.14;;;0.30;100.00
50696;BME280;36665;51.786;21.594;2023-12-22T20:13:16;90808.96;;;0.76;100.00
50696;BME280;36665;51.786;21.594;2023-12-22T20:21:40;90847.98;;;0.84;100.00
50696;BME280;36665;51.786;21.594;2023-12-22T20:30:09;90843.80;;;0.84;100.00
50696;BME280;36665;51.786;21.594;2023-12-22T20:38:37;90836.86;;;0.82;100.00
50696;BME280;36665;51.786;21.594;2023-12-22T20:47:06;90838.67;;;0.83;100.00
50696;BME280;36665;51.786;21.594;2023-12-22T20:55:31;90833.92;;;0.81;100.00
50696;BME280;36665;51.786;21.594;2023-12-22T21:03:57;90835.27;;;0.81;100.00
50696;BME280;36665;51.786;21.594;2023-12-22T21:12:20;90848.20;;;0.85;100.00
50696;BME280;36665;51.786;21.594;2023-12-22T21:20:45;90854.29;;;0.86;100.00
50696;BME280;36665;51.786;21.594;2023-12-22T21:29:07;90852.63;;;0.86;100.00
50696;BME280;36665;51.786;21.594;2023-12-22T21:37:32;90857.80;;;0.88;100.00
50696;BME280;36665;51.786;21.594;2023-12-22T21:45:56;90844.97;;;0.84;100.00
50696;BME280;36665;51.786;21.594;2023-12-22T21:54:21;90835.73;;;0.82;100.00
50696;BME280;36665;51.786;21.594;2023-12-22T22:02:50;90816.35;;;0.76;100.00
50696;BME280;36665;51.786;21.594;2023-12-22T22:11:17;90807.16;;;0.73;100.00
50696;BME280;36665;51.786;21.594;2023-12-22T22:19:42;90786.69;;;0.68;100.00
50696;BME280;36665;51.786;21.594;2023-12-22T22:28:12;90763.95;;;0.62;100.00
50696;BME280;36665;51.786;21.594;2023-12-22T22:36:34;90775.02;;;0.65;100.00
50696;BME280;36665;51.786;21.594;2023-12-22T22:44:59;90775.58;;;0.65;100.00
50696;BME280;36665;51.786;21.594;2023-12-22T22:53:26;90786.17;;;0.69;100.00
50696;BME280;36665;51.786;21.594;2023-12-22T23:01:52;90778.16;;;0.66;100.00
50696;BME280;36665;51.786;21.594;2023-12-22T23:10:19;90772.48;;;0.64;100.00
50696;BME280;36665;51.786;21.594;2023-12-22T23:18:46;90760.75;;;0.62;100.00
50696;BME280;36665;51.786;21.594;2023-12-22T23:27:09;90735.95;;;0.54;100.00
50696;BME280;36665;51.786;21.594;2023-12-22T23:35:35;90719.42;;;0.50;100.00
50696;BME280;36665;51.786;21.594;2023-12-22T23:44:02;90706.73;;;0.47;100.00
50696;BME280;36665;51.786;21.594;2023-12-22T23:52:24;90708.48;;;0.47;100.00
